Vaughan, Canada
Current Conditions -  °F | °C
As of 9:00 PM on Thursday 20 Nov 2014 (Local Time) from CYYZ Reporting Station
Clear Clear  
Wind Chill:   Ceiling: Unl
Heat Index: 19°   Visibility: 15mi
Dew Point: 12°   Wind: 17mph
Humidity: 74%   Direction: 250°WSW
Pressure: 29.94"   Gusts: 23mph
Location:  43.79°N, 79.54°W
Report Text: CYYZ 210200Z 25015G20KT 15SM SKC M07/M11 A2994 RMK SLP147
Loading
Personal Weather Stations






























Interactive Weather Map New forecast layout! Learn more

10-Day Weather Forecast

Advertisements
Track Severe Weather on mobile